Terminal Aerodrome Forecast
Issued by NWS

Home | Current Version | Previous Version | Text Only | Print | Product List | Glossary On
Versions: 1 2 3 4 5 6 7 8 9 10 11 12 13
444
FTUS41 KPBZ 290800 AAA
TAFHLG
TAF AMD
KHLG 290800Z 2908/3006 32003KT 1SM BR VV002
     FM291000 02003KT 2SM BR BKN008
     FM291400 03005KT P6SM BKN250=

USA.gov is the U.S. government's official web portal to all federal, state and local government web resources and services.